sensor_id;sensor_type;location;lat;lon;timestamp;pressure;altitude;pressure_sealevel;temperature;humidity
62122;BME280;48108;47.532;19.084;2024-01-11T04:59:50;67778.44;;;-6.42;100.00
62122;BME280;48108;47.532;19.084;2024-01-11T05:02:53;67768.97;;;-6.48;100.00
62122;BME280;48108;47.532;19.084;2024-01-11T05:05:56;67765.56;;;-6.51;100.00
62122;BME280;48108;47.532;19.084;2024-01-11T05:08:59;67757.84;;;-6.60;100.00
62122;BME280;48108;47.532;19.084;2024-01-11T05:12:02;67799.22;;;-6.72;100.00
62122;BME280;48108;47.532;19.084;2024-01-11T05:15:06;67741.28;;;-6.75;100.00
62122;BME280;48108;47.532;19.084;2024-01-11T05:18:11;67744.41;;;-6.70;100.00
62122;BME280;48108;47.532;19.084;2024-01-11T05:21:14;67746.69;;;-6.68;100.00
62122;BME280;48108;47.532;19.084;2024-01-11T05:24:17;67743.25;;;-6.71;100.00
62122;BME280;48108;47.532;19.084;2024-01-11T05:27:21;67747.84;;;-6.67;100.00
62122;BME280;48108;47.532;19.084;2024-01-11T05:30:24;67750.09;;;-6.65;100.00
62122;BME280;48108;47.532;19.084;2024-01-11T05:33:32;67752.41;;;-6.63;100.00
62122;BME280;48108;47.532;19.084;2024-01-11T05:36:35;67751.25;;;-6.64;100.00
62122;BME280;48108;47.532;19.084;2024-01-11T05:39:38;67749.53;;;-6.65;100.00
62122;BME280;48108;47.532;19.084;2024-01-11T05:42:41;67806.94;;;-6.63;100.00
62122;BME280;48108;47.532;19.084;2024-01-11T05:45:44;67750.09;;;-6.65;100.00
62122;BME280;48108;47.532;19.084;2024-01-11T05:48:50;67753.53;;;-6.62;100.00
62122;BME280;48108;47.532;19.084;2024-01-11T05:51:53;67806.09;;;-6.66;100.00
62122;BME280;48108;47.532;19.084;2024-01-11T05:54:55;67749.28;;;-6.68;100.00
62122;BME280;48108;47.532;19.084;2024-01-11T05:57:58;67751.00;;;-6.66;100.00
62122;BME280;48108;47.532;19.084;2024-01-11T06:01:01;67752.41;;;-6.63;100.00
62122;BME280;48108;47.532;19.084;2024-01-11T06:04:05;67804.38;;;-6.67;100.00
62122;BME280;48108;47.532;19.084;2024-01-11T06:07:09;67744.41;;;-6.70;100.00
62122;BME280;48108;47.532;19.084;2024-01-11T06:10:12;67744.41;;;-6.70;100.00
62122;BME280;48108;47.532;19.084;2024-01-11T06:13:15;67746.41;;;-6.70;100.00
62122;BME280;48108;47.532;19.084;2024-01-11T06:16:18;67749.28;;;-6.68;100.00
62122;BME280;48108;47.532;19.084;2024-01-11T06:19:23;67747.00;;;-6.70;100.00
62122;BME280;48108;47.532;19.084;2024-01-11T06:22:26;67750.44;;;-6.67;100.00
62122;BME280;48108;47.532;19.084;2024-01-11T06:25:29;67752.41;;;-6.63;100.00
62122;BME280;48108;47.532;19.084;2024-01-11T06:28:32;67751.00;;;-6.66;100.00
62122;BME280;48108;47.532;19.084;2024-01-11T06:31:38;67755.00;;;-6.63;100.00
62122;BME280;48108;47.532;19.084;2024-01-11T06:34:41;67807.25;;;-6.65;100.00
62122;BME280;48108;47.532;19.084;2024-01-11T06:37:48;67755.28;;;-6.65;100.00
62122;BME280;48108;47.532;19.084;2024-01-11T06:40:52;67745.84;;;-6.71;100.00
62122;BME280;48108;47.532;19.084;2024-01-11T06:43:54;67748.41;;;-6.66;100.00
62122;BME280;48108;47.532;19.084;2024-01-11T06:47:01;67754.69;;;-6.60;100.00
62122;BME280;48108;47.532;19.084;2024-01-11T06:50:07;67767.25;;;-6.49;100.00
62122;BME280;48108;47.532;19.084;2024-01-11T06:53:11;67766.13;;;-6.50;100.00
62122;BME280;48108;47.532;19.084;2024-01-11T06:56:19;67830.13;;;-6.44;100.00
62122;BME280;48108;47.532;19.084;2024-01-11T06:59:22;67793.00;;;-6.26;100.00
62122;BME280;48108;47.532;19.084;2024-01-11T07:02:28;67798.47;;;-6.24;100.00
62122;BME280;48108;47.532;19.084;2024-01-11T07:05:31;67808.75;;;-6.14;100.00
62122;BME280;48108;47.532;19.084;2024-01-11T07:08:34;67821.34;;;-6.03;100.00
62122;BME280;48108;47.532;19.084;2024-01-11T07:11:38;67897.13;;;-5.84;100.00
62122;BME280;48108;47.532;19.084;2024-01-11T07:14:42;67853.66;;;-5.72;100.00
62122;BME280;48108;47.532;19.084;2024-01-11T07:17:45;67888.88;;;-5.43;100.00
62122;BME280;48108;47.532;19.084;2024-01-11T07:20:48;67976.22;;;-5.14;100.00
62122;BME280;48108;47.532;19.084;2024-01-11T07:23:52;68017.47;;;-4.77;100.00
62122;BME280;48108;47.532;19.084;2024-01-11T07:26:54;68015.75;;;-4.27;100.00
62122;BME280;48108;47.532;19.084;2024-01-11T07:29:57;68064.22;;;-3.87;100.00
62122;BME280;48108;47.532;19.084;2024-01-11T07:33:01;68096.63;;;-3.55;100.00
62122;BME280;48108;47.532;19.084;2024-01-11T07:36:05;68181.03;;;-3.31;100.00
62122;BME280;48108;47.532;19.084;2024-01-11T07:39:09;68199.41;;;-3.15;100.00
62122;BME280;48108;47.532;19.084;2024-01-11T07:42:14;68175.25;;;-2.85;100.00
62122;BME280;48108;47.532;19.084;2024-01-11T07:45:17;68198.50;;;-2.67;100.00
62122;BME280;48108;47.532;19.084;2024-01-11T07:48:20;68220.34;;;-2.47;100.00
62122;BME280;48108;47.532;19.084;2024-01-11T07:51:24;68241.00;;;-2.29;100.00
62122;BME280;48108;47.532;19.084;2024-01-11T07:54:27;68290.41;;;-1.85;100.00
62122;BME280;48108;47.532;19.084;2024-01-11T07:57:30;68315.16;;;-1.63;100.00
62122;BME280;48108;47.532;19.084;2024-01-11T08:00:33;68324.34;;;-1.55;100.00
62122;BME280;48108;47.532;19.084;2024-01-11T08:03:36;68326.97;;;-1.55;100.00
62122;BME280;48108;47.532;19.084;2024-01-11T08:06:39;68323.75;;;-1.55;100.00
62122;BME280;48108;47.532;19.084;2024-01-11T08:09:42;68331.56;;;-1.51;100.00
62122;BME280;48108;47.532;19.084;2024-01-11T08:12:48;68390.28;;;-1.45;100.00
62122;BME280;48108;47.532;19.084;2024-01-11T08:15:50;68347.91;;;-1.34;100.00
62122;BME280;48108;47.532;19.084;2024-01-11T08:18:53;68361.38;;;-1.20;100.00
62122;BME280;48108;47.532;19.084;2024-01-11T08:21:57;68389.31;;;-0.97;100.00
62122;BME280;48108;47.532;19.084;2024-01-11T08:24:59;68379.78;;;-1.03;100.00
62122;BME280;48108;47.532;19.084;2024-01-11T08:28:03;68393.00;;;-0.92;100.00
62122;BME280;48108;47.532;19.084;2024-01-11T08:31:06;68401.97;;;-0.86;100.00
62122;BME280;48108;47.532;19.084;2024-01-11T08:34:10;68460.22;;;-0.85;100.00
62122;BME280;48108;47.532;19.084;2024-01-11T08:37:13;68409.75;;;-0.81;100.00
62122;BME280;48108;47.532;19.084;2024-01-11T08:40:17;68413.72;;;-0.73;100.00
62122;BME280;48108;47.532;19.084;2024-01-11T08:43:19;68437.63;;;-0.54;100.00
62122;BME280;48108;47.532;19.084;2024-01-11T08:46:24;68450.28;;;-0.43;100.00
62122;BME280;48108;47.532;19.084;2024-01-11T08:49:27;68467.53;;;-0.28;97.83
62122;BME280;48108;47.532;19.084;2024-01-11T08:52:30;68479.38;;;-0.19;97.66
62122;BME280;48108;47.532;19.084;2024-01-11T08:55:33;68492.31;;;-0.06;95.54
62122;BME280;48108;47.532;19.084;2024-01-11T08:58:36;68506.94;;;0.10;94.33
62122;BME280;48108;47.532;19.084;2024-01-11T09:01:39;68518.53;;;0.15;88.75
62122;BME280;48108;47.532;19.084;2024-01-11T09:04:51;68524.78;;;0.26;86.81
62122;BME280;48108;47.532;19.084;2024-01-11T09:07:54;68521.91;;;0.23;84.42
62122;BME280;48108;47.532;19.084;2024-01-11T09:10:57;68526.84;;;0.25;82.82
62122;BME280;48108;47.532;19.084;2024-01-11T09:14:02;68509.00;;;0.09;83.28
62122;BME280;48108;47.532;19.084;2024-01-11T09:17:06;68507.84;;;0.08;82.04
62122;BME280;48108;47.532;19.084;2024-01-11T09:20:10;68517.88;;;0.19;81.35
62122;BME280;48108;47.532;19.084;2024-01-11T09:23:20;68541.22;;;0.38;80.80
62122;BME280;48108;47.532;19.084;2024-01-11T09:26:23;68542.38;;;0.39;79.18
62122;BME280;48108;47.532;19.084;2024-01-11T09:29:26;68559.50;;;0.47;78.11
62122;BME280;48108;47.532;19.084;2024-01-11T09:32:30;68534.91;;;0.32;76.69
62122;BME280;48108;47.532;19.084;2024-01-11T09:35:34;68554.47;;;0.50;75.22
62122;BME280;48108;47.532;19.084;2024-01-11T09:38:37;68561.16;;;0.53;74.06
62122;BME280;48108;47.532;19.084;2024-01-11T09:41:42;68573.47;;;0.66;74.18
62122;BME280;48108;47.532;19.084;2024-01-11T09:44:49;68561.97;;;0.56;71.83
62122;BME280;48108;47.532;19.084;2024-01-11T09:47:53;68559.66;;;0.54;70.57
62122;BME280;48108;47.532;19.084;2024-01-11T09:50:58;68572.66;;;0.63;68.53
62122;BME280;48108;47.532;19.084;2024-01-11T09:54:03;68585.34;;;0.75;61.25
62122;BME280;48108;47.532;19.084;2024-01-11T09:57:06;68591.41;;;0.78;59.05
62122;BME280;48108;47.532;19.084;2024-01-11T10:00:13;68601.78;;;0.87;58.74
62122;BME280;48108;47.532;19.084;2024-01-11T10:03:17;68669.38;;;1.00;58.92
62122;BME280;48108;47.532;19.084;2024-01-11T10:06:21;68673.97;;;1.04;59.99
62122;BME280;48108;47.532;19.084;2024-01-11T10:09:25;68608.31;;;1.00;59.87
62122;BME280;48108;47.532;19.084;2024-01-11T10:12:29;68610.13;;;0.97;60.37
62122;BME280;48108;47.532;19.084;2024-01-11T10:15:32;68626.22;;;1.11;59.74
62122;BME280;48108;47.532;19.084;2024-01-11T10:18:36;68621.31;;;1.09;59.71
62122;BME280;48108;47.532;19.084;2024-01-11T10:21:39;68644.38;;;1.29;60.06
62122;BME280;48108;47.532;19.084;2024-01-11T10:24:42;68640.00;;;1.28;60.09
62122;BME280;48108;47.532;19.084;2024-01-11T10:27:45;68699.38;;;1.27;61.35
62122;BME280;48108;47.532;19.084;2024-01-11T10:30:51;68657.63;;;1.41;62.73
62122;BME280;48108;47.532;19.084;2024-01-11T10:33:57;68669.47;;;1.49;61.31
62122;BME280;48108;47.532;19.084;2024-01-11T10:37:00;68663.72;;;1.44;62.35
62122;BME280;48108;47.532;19.084;2024-01-11T10:40:05;68667.41;;;1.50;62.74
62122;BME280;48108;47.532;19.084;2024-01-11T10:43:21;68672.34;;;1.52;63.37
62122;BME280;48108;47.532;19.084;2024-01-11T10:46:25;68720.38;;;1.48;63.44
62122;BME280;48108;47.532;19.084;2024-01-11T10:49:30;68731.94;;;1.58;64.70
62122;BME280;48108;47.532;19.084;2024-01-11T10:52:36;68691.06;;;1.71;64.82
62122;BME280;48108;47.532;19.084;2024-01-11T10:55:42;68689.66;;;1.67;65.95
62122;BME280;48108;47.532;19.084;2024-01-11T10:58:47;68695.09;;;1.74;63.26
62122;BME280;48108;47.532;19.084;2024-01-11T11:01:53;68684.72;;;1.65;63.21
62122;BME280;48108;47.532;19.084;2024-01-11T11:05:01;68686.78;;;1.65;65.16
62122;BME280;48108;47.532;19.084;2024-01-11T11:08:08;68683.22;;;1.66;64.46
62122;BME280;48108;47.532;19.084;2024-01-11T11:11:12;68697.97;;;1.77;63.41
62122;BME280;48108;47.532;19.084;2024-01-11T11:14:17;68710.66;;;1.88;64.30
62122;BME280;48108;47.532;19.084;2024-01-11T11:17:21;68777.25;;;1.96;63.79
62122;BME280;48108;47.532;19.084;2024-01-11T11:20:24;68769.44;;;1.91;63.42
62122;BME280;48108;47.532;19.084;2024-01-11T11:23:27;68721.03;;;1.97;66.86
62122;BME280;48108;47.532;19.084;2024-01-11T11:26:32;68728.53;;;2.04;67.21
62122;BME280;48108;47.532;19.084;2024-01-11T11:29:35;68744.09;;;2.18;66.70
62122;BME280;48108;47.532;19.084;2024-01-11T11:32:42;68747.88;;;2.19;66.76
62122;BME280;48108;47.532;19.084;2024-01-11T11:35:46;68757.38;;;2.30;66.25
62122;BME280;48108;47.532;19.084;2024-01-11T11:38:50;68768.59;;;2.42;65.69
62122;BME280;48108;47.532;19.084;2024-01-11T11:41:54;68856.34;;;2.66;65.89
62122;BME280;48108;47.532;19.084;2024-01-11T11:45:00;68874.28;;;2.82;64.10
62122;BME280;48108;47.532;19.084;2024-01-11T11:51:32;68842.53;;;3.03;62.13
62122;BME280;48108;47.532;19.084;2024-01-11T11:54:35;68856.63;;;3.17;61.36
62122;BME280;48108;47.532;19.084;2024-01-11T11:57:38;68841.63;;;3.04;61.98
62122;BME280;48108;47.532;19.084;2024-01-11T12:00:42;68908.03;;;3.63;60.76
62122;BME280;48108;47.532;19.084;2024-01-11T12:03:46;68997.94;;;4.40;59.46
62122;BME280;48108;47.532;19.084;2024-01-11T12:06:52;69065.56;;;5.00;56.82
62122;BME280;48108;47.532;19.084;2024-01-11T12:09:57;69106.31;;;5.38;53.27
62122;BME280;48108;47.532;19.084;2024-01-11T12:13:00;69031.13;;;4.72;55.36
62122;BME280;48108;47.532;19.084;2024-01-11T12:16:03;69046.81;;;4.81;54.09
62122;BME280;48108;47.532;19.084;2024-01-11T12:19:06;69110.69;;;5.40;53.32
62122;BME280;48108;47.532;19.084;2024-01-11T12:22:09;69216.97;;;6.31;49.20
62122;BME280;48108;47.532;19.084;2024-01-11T12:25:14;69281.75;;;6.93;46.56
62122;BME280;48108;47.532;19.084;2024-01-11T12:28:17;69312.78;;;7.18;46.00
62122;BME280;48108;47.532;19.084;2024-01-11T12:31:21;69291.94;;;7.00;44.81
62122;BME280;48108;47.532;19.084;2024-01-11T12:34:25;69395.94;;;7.94;42.54
62122;BME280;48108;47.532;19.084;2024-01-11T12:37:30;69455.22;;;8.42;40.89
62122;BME280;48108;47.532;19.084;2024-01-11T12:40:34;69478.06;;;8.64;40.48
62122;BME280;48108;47.532;19.084;2024-01-11T12:43:38;69551.19;;;9.28;39.13
62122;BME280;48108;47.532;19.084;2024-01-11T12:46:41;69526.00;;;9.04;38.46
62122;BME280;48108;47.532;19.084;2024-01-11T12:49:44;69517.53;;;8.99;38.95
62122;BME280;48108;47.532;19.084;2024-01-11T12:53:07;69680.75;;;10.42;36.99
62122;BME280;48108;47.532;19.084;2024-01-11T12:56:10;69787.72;;;11.37;34.46
62122;BME280;48108;47.532;19.084;2024-01-11T12:59:14;69573.84;;;9.48;36.85
62122;BME280;48108;47.532;19.084;2024-01-11T13:02:19;69287.06;;;6.93;41.39
62122;BME280;48108;47.532;19.084;2024-01-11T13:05:23;69113.00;;;5.42;44.20
62122;BME280;48108;47.532;19.084;2024-01-11T13:08:26;69044.44;;;4.84;46.39
62122;BME280;48108;47.532;19.084;2024-01-11T13:11:30;69040.97;;;4.81;47.33
62122;BME280;48108;47.532;19.084;2024-01-11T13:14:33;69103.81;;;4.85;46.76
62122;BME280;48108;47.532;19.084;2024-01-11T13:17:36;69077.75;;;4.62;46.58
62122;BME280;48108;47.532;19.084;2024-01-11T13:20:39;68994.13;;;4.39;45.49
62122;BME280;48108;47.532;19.084;2024-01-11T13:23:43;68965.56;;;4.12;44.99
62122;BME280;48108;47.532;19.084;2024-01-11T13:26:46;68881.47;;;3.39;46.53
62122;BME280;48108;47.532;19.084;2024-01-11T13:29:49;68830.66;;;2.94;48.22
62122;BME280;48108;47.532;19.084;2024-01-11T13:32:52;68816.56;;;2.80;49.06
62122;BME280;48108;47.532;19.084;2024-01-11T13:35:56;68778.47;;;2.46;49.77
62122;BME280;48108;47.532;19.084;2024-01-11T13:38:59;68778.22;;;2.43;50.60
62122;BME280;48108;47.532;19.084;2024-01-11T13:42:03;68761.16;;;2.31;51.52
62122;BME280;48108;47.532;19.084;2024-01-11T13:45:12;68773.78;;;2.46;50.86
62122;BME280;48108;47.532;19.084;2024-01-11T13:48:15;68776.75;;;2.44;51.36
62122;BME280;48108;47.532;19.084;2024-01-11T13:51:19;68752.84;;;2.21;51.07
62122;BME280;48108;47.532;19.084;2024-01-11T13:54:24;68725.06;;;2.01;51.73
62122;BME280;48108;47.532;19.084;2024-01-11T13:57:27;68725.47;;;1.94;52.81
62122;BME280;48108;47.532;19.084;2024-01-11T14:00:31;68706.63;;;1.85;52.80
62122;BME280;48108;47.532;19.084;2024-01-11T14:03:34;68709.25;;;1.85;52.21
62122;BME280;48108;47.532;19.084;2024-01-11T14:06:37;68697.97;;;1.77;52.75
62122;BME280;48108;47.532;19.084;2024-01-11T14:09:40;68696.47;;;1.78;52.39
62122;BME280;48108;47.532;19.084;2024-01-11T14:12:43;68709.25;;;1.85;52.17
62122;BME280;48108;47.532;19.084;2024-01-11T14:15:46;68690.47;;;1.70;50.31
62122;BME280;48108;47.532;19.084;2024-01-11T14:18:51;68674.91;;;1.56;50.30
62122;BME280;48108;47.532;19.084;2024-01-11T14:21:54;68680.94;;;1.64;49.23
62122;BME280;48108;47.532;19.084;2024-01-11T14:24:57;68680.09;;;1.61;49.13
62122;BME280;48108;47.532;19.084;2024-01-11T14:28:01;68672.94;;;1.52;48.17
62122;BME280;48108;47.532;19.084;2024-01-11T14:31:03;68678.13;;;1.57;49.11
62122;BME280;48108;47.532;19.084;2024-01-11T14:34:07;68678.69;;;1.57;48.20
62122;BME280;48108;47.532;19.084;2024-01-11T14:37:12;68668.88;;;1.49;48.66
62122;BME280;48108;47.532;19.084;2024-01-11T14:40:15;68676.41;;;1.55;49.48
62122;BME280;48108;47.532;19.084;2024-01-11T14:43:18;68656.78;;;1.38;50.49
62122;BME280;48108;47.532;19.084;2024-01-11T14:46:21;68646.34;;;1.33;52.16
62122;BME280;48108;47.532;19.084;2024-01-11T14:49:24;68631.44;;;1.16;53.82
62122;BME280;48108;47.532;19.084;2024-01-11T14:52:29;68627.41;;;1.12;55.66
62122;BME280;48108;47.532;19.084;2024-01-11T14:55:35;68595.63;;;0.88;58.25
62122;BME280;48108;47.532;19.084;2024-01-11T14:58:38;68582.13;;;0.74;60.60
62122;BME280;48108;47.532;19.084;2024-01-11T15:01:41;68579.81;;;0.72;63.44
62122;BME280;48108;47.532;19.084;2024-01-11T15:04:46;68558.19;;;0.55;64.12
62122;BME280;48108;47.532;19.084;2024-01-11T15:07:50;68611.41;;;0.51;65.04
62122;BME280;48108;47.532;19.084;2024-01-11T15:10:53;68557.34;;;0.52;66.53
62122;BME280;48108;47.532;19.084;2024-01-11T15:13:56;68547.25;;;0.45;67.12
62122;BME280;48108;47.532;19.084;2024-01-11T15:16:59;68549.03;;;0.42;69.08
62122;BME280;48108;47.532;19.084;2024-01-11T15:20:02;68557.34;;;0.52;68.06
62122;BME280;48108;47.532;19.084;2024-01-11T15:23:07;68563.78;;;0.53;67.71
62122;BME280;48108;47.532;19.084;2024-01-11T15:26:10;68555.13;;;0.45;69.65
62122;BME280;48108;47.532;19.084;2024-01-11T15:31:50;68570.34;;;0.61;72.78
62122;BME280;48108;47.532;19.084;2024-01-11T15:34:54;68570.34;;;0.61;72.78
62122;BME280;48108;47.532;19.084;2024-01-11T15:37:57;68526.25;;;0.25;70.66
62122;BME280;48108;47.532;19.084;2024-01-11T15:41:00;68536.94;;;0.32;68.30
62122;BME280;48108;47.532;19.084;2024-01-11T15:44:03;68533.75;;;0.31;59.65
62122;BME280;48108;47.532;19.084;2024-01-11T15:47:08;68549.63;;;0.43;59.23
62122;BME280;48108;47.532;19.084;2024-01-11T15:50:13;68566.06;;;0.55;55.53
62122;BME280;48108;47.532;19.084;2024-01-11T15:53:16;68565.75;;;0.57;53.35
62122;BME280;48108;47.532;19.084;2024-01-11T15:56:19;68561.47;;;0.51;53.43
62122;BME280;48108;47.532;19.084;2024-01-11T15:59:23;68559.66;;;0.54;54.02
62122;BME280;48108;47.532;19.084;2024-01-11T16:02:29;68553.31;;;0.49;55.45
62122;BME280;48108;47.532;19.084;2024-01-11T16:05:32;68544.69;;;0.41;56.33
62122;BME280;48108;47.532;19.084;2024-01-11T16:08:36;68526.25;;;0.25;59.18
62122;BME280;48108;47.532;19.084;2024-01-11T16:11:39;68512.19;;;0.10;62.41
62122;BME280;48108;47.532;19.084;2024-01-11T16:14:43;68501.50;;;0.03;63.58
62122;BME280;48108;47.532;19.084;2024-01-11T16:17:50;68486.22;;;-0.09;66.01
62122;BME280;48108;47.532;19.084;2024-01-11T16:20:53;68476.44;;;-0.17;68.20
62122;BME280;48108;47.532;19.084;2024-01-11T16:23:58;68472.13;;;-0.24;69.69
62122;BME280;48108;47.532;19.084;2024-01-11T16:27:05;68460.91;;;-0.31;72.20
62122;BME280;48108;47.532;19.084;2024-01-11T16:30:10;68460.06;;;-0.34;75.36
62122;BME280;48108;47.532;19.084;2024-01-11T16:33:14;68454.31;;;-0.39;78.41
62122;BME280;48108;47.532;19.084;2024-01-11T16:36:17;68448.28;;;-0.47;81.68
62122;BME280;48108;47.532;19.084;2024-01-11T16:39:20;68441.91;;;-0.48;86.02
62122;BME280;48108;47.532;19.084;2024-01-11T16:42:24;68488.13;;;-0.58;91.22
62122;BME280;48108;47.532;19.084;2024-01-11T16:45:28;68427.28;;;-0.63;94.49
62122;BME280;48108;47.532;19.084;2024-01-11T16:48:32;68421.25;;;-0.71;97.48
62122;BME280;48108;47.532;19.084;2024-01-11T16:51:45;68420.75;;;-0.76;100.00
